sensor_id;sensor_type;location;lat;lon;timestamp;pressure;altitude;pressure_sealevel;temperature;humidity
21545;BME280;10933;50.754;11.508;2023-10-31T00:00:18;98584.69;;;12.14;nan
21545;BME280;10933;50.754;11.508;2023-10-31T00:02:44;98582.28;;;12.13;nan
21545;BME280;10933;50.754;11.508;2023-10-31T00:05:10;98591.25;;;12.08;nan
21545;BME280;10933;50.754;11.508;2023-10-31T00:07:36;98586.00;;;12.46;nan
21545;BME280;10933;50.754;11.508;2023-10-31T00:10:01;98573.75;;;12.53;nan
21545;BME280;10933;50.754;11.508;2023-10-31T00:12:27;98574.72;;;12.38;nan
21545;BME280;10933;50.754;11.508;2023-10-31T00:14:53;98574.50;;;12.35;nan
21545;BME280;10933;50.754;11.508;2023-10-31T00:17:19;98564.38;;;12.46;nan
21545;BME280;10933;50.754;11.508;2023-10-31T00:19:44;98561.34;;;12.23;nan
21545;BME280;10933;50.754;11.508;2023-10-31T00:22:10;98559.81;;;12.41;nan
21545;BME280;10933;50.754;11.508;2023-10-31T00:24:36;98554.91;;;12.67;nan
21545;BME280;10933;50.754;11.508;2023-10-31T00:27:02;98548.47;;;12.63;nan
21545;BME280;10933;50.754;11.508;2023-10-31T00:29:27;98541.84;;;12.74;nan
21545;BME280;10933;50.754;11.508;2023-10-31T00:31:53;98544.03;;;12.72;nan
21545;BME280;10933;50.754;11.508;2023-10-31T00:34:20;98554.78;;;12.77;nan
21545;BME280;10933;50.754;11.508;2023-10-31T00:36:46;98542.25;;;12.86;nan
21545;BME280;10933;50.754;11.508;2023-10-31T00:39:12;98539.84;;;13.04;nan
21545;BME280;10933;50.754;11.508;2023-10-31T00:41:39;98518.78;;;13.01;nan
21545;BME280;10933;50.754;11.508;2023-10-31T00:44:05;98506.03;;;13.01;nan
21545;BME280;10933;50.754;11.508;2023-10-31T00:46:31;98509.47;;;13.07;nan
21545;BME280;10933;50.754;11.508;2023-10-31T00:48:57;98505.09;;;13.11;nan
21545;BME280;10933;50.754;11.508;2023-10-31T00:51:22;98499.69;;;13.11;nan
21545;BME280;10933;50.754;11.508;2023-10-31T00:53:48;98488.75;;;13.16;nan
21545;BME280;10933;50.754;11.508;2023-10-31T00:56:14;98492.88;;;13.13;nan
21545;BME280;10933;50.754;11.508;2023-10-31T00:58:40;98502.66;;;12.90;nan
21545;BME280;10933;50.754;11.508;2023-10-31T01:01:05;98493.00;;;12.84;nan
21545;BME280;10933;50.754;11.508;2023-10-31T01:03:32;98492.03;;;12.75;nan
21545;BME280;10933;50.754;11.508;2023-10-31T01:05:58;98487.16;;;12.77;nan
21545;BME280;10933;50.754;11.508;2023-10-31T01:08:24;98495.59;;;12.52;nan
21545;BME280;10933;50.754;11.508;2023-10-31T01:10:49;98491.16;;;12.61;nan
21545;BME280;10933;50.754;11.508;2023-10-31T01:13:15;98508.78;;;12.34;nan
21545;BME280;10933;50.754;11.508;2023-10-31T01:15:41;98504.50;;;12.28;nan
21545;BME280;10933;50.754;11.508;2023-10-31T01:18:07;98508.09;;;12.48;nan
21545;BME280;10933;50.754;11.508;2023-10-31T01:20:32;98515.44;;;12.66;nan
21545;BME280;10933;50.754;11.508;2023-10-31T01:22:58;98514.81;;;12.50;nan
21545;BME280;10933;50.754;11.508;2023-10-31T01:25:24;98504.81;;;12.70;nan
21545;BME280;10933;50.754;11.508;2023-10-31T01:27:49;98507.81;;;12.68;nan
21545;BME280;10933;50.754;11.508;2023-10-31T01:30:15;98507.53;;;12.70;nan
21545;BME280;10933;50.754;11.508;2023-10-31T01:32:41;98514.91;;;12.64;nan
21545;BME280;10933;50.754;11.508;2023-10-31T01:35:07;98504.97;;;12.35;nan
21545;BME280;10933;50.754;11.508;2023-10-31T01:37:33;98492.78;;;12.38;nan
21545;BME280;10933;50.754;11.508;2023-10-31T01:39:58;98493.69;;;12.52;nan
21545;BME280;10933;50.754;11.508;2023-10-31T01:42:24;98494.78;;;12.51;nan
21545;BME280;10933;50.754;11.508;2023-10-31T01:44:50;98480.66;;;12.54;nan
21545;BME280;10933;50.754;11.508;2023-10-31T01:47:16;98486.00;;;12.83;nan
21545;BME280;10933;50.754;11.508;2023-10-31T01:49:41;98475.91;;;12.89;nan
21545;BME280;10933;50.754;11.508;2023-10-31T01:52:07;98473.84;;;13.00;nan
21545;BME280;10933;50.754;11.508;2023-10-31T01:54:34;98471.75;;;12.96;nan
21545;BME280;10933;50.754;11.508;2023-10-31T01:57:01;98471.75;;;12.96;nan
21545;BME280;10933;50.754;11.508;2023-10-31T01:59:28;98466.97;;;12.88;nan
21545;BME280;10933;50.754;11.508;2023-10-31T02:01:56;98459.41;;;12.48;nan
21545;BME280;10933;50.754;11.508;2023-10-31T02:04:24;98464.00;;;12.47;nan
21545;BME280;10933;50.754;11.508;2023-10-31T02:06:50;98468.31;;;12.48;nan
21545;BME280;10933;50.754;11.508;2023-10-31T02:09:16;98463.25;;;12.42;nan
21545;BME280;10933;50.754;11.508;2023-10-31T02:11:42;98450.22;;;12.44;nan
21545;BME280;10933;50.754;11.508;2023-10-31T02:14:07;98445.91;;;12.43;nan
21545;BME280;10933;50.754;11.508;2023-10-31T02:16:33;98435.28;;;12.70;nan
21545;BME280;10933;50.754;11.508;2023-10-31T02:18:59;98432.50;;;12.75;nan
21545;BME280;10933;50.754;11.508;2023-10-31T02:21:25;98443.38;;;12.70;nan
21545;BME280;10933;50.754;11.508;2023-10-31T02:24:03;98436.09;;;12.71;nan
21545;BME280;10933;50.754;11.508;2023-10-31T02:26:34;98426.66;;;12.68;nan
21545;BME280;10933;50.754;11.508;2023-10-31T02:29:02;98425.13;;;12.62;nan
21545;BME280;10933;50.754;11.508;2023-10-31T02:31:28;98434.47;;;12.70;nan
21545;BME280;10933;50.754;11.508;2023-10-31T02:33:54;98418.69;;;12.58;nan
21545;BME280;10933;50.754;11.508;2023-10-31T02:36:20;98408.06;;;12.43;nan
21545;BME280;10933;50.754;11.508;2023-10-31T02:38:47;98415.69;;;12.59;nan
21545;BME280;10933;50.754;11.508;2023-10-31T02:41:13;98412.63;;;12.66;nan
21545;BME280;10933;50.754;11.508;2023-10-31T02:43:40;98410.41;;;12.68;nan
21545;BME280;10933;50.754;11.508;2023-10-31T02:46:06;98406.56;;;12.74;nan
21545;BME280;10933;50.754;11.508;2023-10-31T02:48:32;98415.09;;;12.81;nan
21545;BME280;10933;50.754;11.508;2023-10-31T02:51:05;98403.13;;;12.87;nan
21545;BME280;10933;50.754;11.508;2023-10-31T02:53:30;98399.91;;;12.85;nan
21545;BME280;10933;50.754;11.508;2023-10-31T02:55:56;98399.22;;;12.93;nan
21545;BME280;10933;50.754;11.508;2023-10-31T02:58:22;98382.47;;;12.91;nan
21545;BME280;10933;50.754;11.508;2023-10-31T03:00:48;98385.13;;;12.78;nan
21545;BME280;10933;50.754;11.508;2023-10-31T03:03:13;98381.41;;;12.74;nan
21545;BME280;10933;50.754;11.508;2023-10-31T03:05:39;98376.94;;;12.64;nan
21545;BME280;10933;50.754;11.508;2023-10-31T03:08:05;98384.09;;;12.55;nan
21545;BME280;10933;50.754;11.508;2023-10-31T03:10:33;98403.03;;;12.12;nan
21545;BME280;10933;50.754;11.508;2023-10-31T03:12:58;98425.66;;;12.21;nan
21545;BME280;10933;50.754;11.508;2023-10-31T03:15:24;98449.09;;;12.26;nan
21545;BME280;10933;50.754;11.508;2023-10-31T03:17:50;98447.53;;;12.44;nan
21545;BME280;10933;50.754;11.508;2023-10-31T03:20:16;98447.78;;;12.23;nan
21545;BME280;10933;50.754;11.508;2023-10-31T03:22:42;98470.41;;;12.08;nan
21545;BME280;10933;50.754;11.508;2023-10-31T03:25:07;98484.03;;;12.22;nan
21545;BME280;10933;50.754;11.508;2023-10-31T03:27:33;98487.47;;;12.04;nan
21545;BME280;10933;50.754;11.508;2023-10-31T03:29:59;98499.19;;;11.94;nan
21545;BME280;10933;50.754;11.508;2023-10-31T03:32:25;98507.69;;;11.83;nan
21545;BME280;10933;50.754;11.508;2023-10-31T03:34:50;98496.44;;;11.99;nan
21545;BME280;10933;50.754;11.508;2023-10-31T03:37:16;98498.63;;;11.97;nan
21545;BME280;10933;50.754;11.508;2023-10-31T03:39:42;98520.53;;;11.96;nan
21545;BME280;10933;50.754;11.508;2023-10-31T03:42:08;98520.03;;;11.89;nan
21545;BME280;10933;50.754;11.508;2023-10-31T03:44:33;98506.34;;;12.09;nan
21545;BME280;10933;50.754;11.508;2023-10-31T03:46:59;98483.63;;;12.10;nan
21545;BME280;10933;50.754;11.508;2023-10-31T03:49:25;98481.69;;;11.87;nan
21545;BME280;10933;50.754;11.508;2023-10-31T03:51:50;98482.81;;;11.81;nan
21545;BME280;10933;50.754;11.508;2023-10-31T03:54:17;98465.09;;;11.69;nan
21545;BME280;10933;50.754;11.508;2023-10-31T03:56:43;98445.59;;;11.72;nan
21545;BME280;10933;50.754;11.508;2023-10-31T03:59:10;98426.16;;;11.99;nan
21545;BME280;10933;50.754;11.508;2023-10-31T04:01:36;98404.44;;;11.86;nan
21545;BME280;10933;50.754;11.508;2023-10-31T04:04:02;98391.31;;;11.98;nan
21545;BME280;10933;50.754;11.508;2023-10-31T04:06:28;98379.53;;;11.89;nan
21545;BME280;10933;50.754;11.508;2023-10-31T04:08:54;98358.47;;;12.10;nan
21545;BME280;10933;50.754;11.508;2023-10-31T04:11:20;98357.28;;;11.97;nan
21545;BME280;10933;50.754;11.508;2023-10-31T04:13:45;98361.31;;;11.99;nan
21545;BME280;10933;50.754;11.508;2023-10-31T04:16:11;98355.09;;;11.99;nan
21545;BME280;10933;50.754;11.508;2023-10-31T04:18:37;98351.75;;;12.07;nan
21545;BME280;10933;50.754;11.508;2023-10-31T04:21:03;98349.59;;;11.85;nan
21545;BME280;10933;50.754;11.508;2023-10-31T04:23:29;98349.81;;;11.89;nan
21545;BME280;10933;50.754;11.508;2023-10-31T04:25:55;98341.19;;;11.87;nan
21545;BME280;10933;50.754;11.508;2023-10-31T04:28:21;98340.72;;;11.79;nan
21545;BME280;10933;50.754;11.508;2023-10-31T04:30:47;98333.09;;;11.87;nan
21545;BME280;10933;50.754;11.508;2023-10-31T04:33:12;98321.66;;;11.95;nan
21545;BME280;10933;50.754;11.508;2023-10-31T04:35:38;98316.88;;;12.05;nan
21545;BME280;10933;50.754;11.508;2023-10-31T04:38:04;98298.94;;;11.96;nan
21545;BME280;10933;50.754;11.508;2023-10-31T04:40:30;98298.94;;;12.15;nan
21545;BME280;10933;50.754;11.508;2023-10-31T04:42:55;98299.59;;;12.25;nan
21545;BME280;10933;50.754;11.508;2023-10-31T04:45:21;98296.19;;;12.20;nan
21545;BME280;10933;50.754;11.508;2023-10-31T04:47:47;98304.56;;;12.18;nan
21545;BME280;10933;50.754;11.508;2023-10-31T04:50:12;98315.09;;;12.20;nan
21545;BME280;10933;50.754;11.508;2023-10-31T04:52:38;98323.25;;;12.15;nan
21545;BME280;10933;50.754;11.508;2023-10-31T04:55:05;98333.97;;;11.82;nan
21545;BME280;10933;50.754;11.508;2023-10-31T04:57:31;98333.81;;;11.92;nan
21545;BME280;10933;50.754;11.508;2023-10-31T04:59:57;98351.19;;;11.86;nan
21545;BME280;10933;50.754;11.508;2023-10-31T05:02:24;98356.38;;;11.83;nan
21545;BME280;10933;50.754;11.508;2023-10-31T05:04:50;98363.78;;;11.67;nan
21545;BME280;10933;50.754;11.508;2023-10-31T05:07:19;98375.22;;;11.88;nan
21545;BME280;10933;50.754;11.508;2023-10-31T05:09:45;98405.75;;;11.59;nan
21545;BME280;10933;50.754;11.508;2023-10-31T05:12:11;98399.34;;;11.79;nan
21545;BME280;10933;50.754;11.508;2023-10-31T05:14:37;98411.97;;;11.89;nan
21545;BME280;10933;50.754;11.508;2023-10-31T05:17:04;98424.09;;;11.91;nan
21545;BME280;10933;50.754;11.508;2023-10-31T05:19:30;98434.47;;;12.08;nan
21545;BME280;10933;50.754;11.508;2023-10-31T05:21:56;98447.44;;;11.82;nan
21545;BME280;10933;50.754;11.508;2023-10-31T05:24:21;98460.59;;;11.89;nan
21545;BME280;10933;50.754;11.508;2023-10-31T05:26:47;98478.06;;;11.67;nan
21545;BME280;10933;50.754;11.508;2023-10-31T05:29:13;98489.75;;;11.92;nan
21545;BME280;10933;50.754;11.508;2023-10-31T05:31:39;98505.88;;;12.02;nan
21545;BME280;10933;50.754;11.508;2023-10-31T05:34:05;98501.16;;;12.13;nan
21545;BME280;10933;50.754;11.508;2023-10-31T05:36:31;98505.53;;;12.08;nan
21545;BME280;10933;50.754;11.508;2023-10-31T05:38:56;98498.78;;;11.82;nan
21545;BME280;10933;50.754;11.508;2023-10-31T05:41:22;98496.28;;;11.57;nan
21545;BME280;10933;50.754;11.508;2023-10-31T05:43:48;98495.81;;;11.44;nan
21545;BME280;10933;50.754;11.508;2023-10-31T05:46:14;98501.41;;;11.53;nan
21545;BME280;10933;50.754;11.508;2023-10-31T05:48:43;98500.97;;;11.41;nan
21545;BME280;10933;50.754;11.508;2023-10-31T05:51:13;98503.56;;;11.56;nan
21545;BME280;10933;50.754;11.508;2023-10-31T05:53:41;98505.97;;;11.24;nan
21545;BME280;10933;50.754;11.508;2023-10-31T05:56:09;98502.22;;;11.14;nan
21545;BME280;10933;50.754;11.508;2023-10-31T05:58:36;98503.22;;;11.29;nan
21545;BME280;10933;50.754;11.508;2023-10-31T06:01:02;98511.22;;;11.44;nan
21545;BME280;10933;50.754;11.508;2023-10-31T06:03:27;98507.31;;;11.60;nan
21545;BME280;10933;50.754;11.508;2023-10-31T06:05:53;98499.50;;;11.54;nan
21545;BME280;10933;50.754;11.508;2023-10-31T06:08:19;98491.63;;;11.62;nan
21545;BME280;10933;50.754;11.508;2023-10-31T06:10:45;98495.56;;;11.41;nan
21545;BME280;10933;50.754;11.508;2023-10-31T06:13:11;98492.34;;;11.39;nan
21545;BME280;10933;50.754;11.508;2023-10-31T06:15:37;98493.13;;;11.44;nan
21545;BME280;10933;50.754;11.508;2023-10-31T06:18:03;98498.78;;;11.43;nan
21545;BME280;10933;50.754;11.508;2023-10-31T06:20:29;98499.72;;;11.62;nan
21545;BME280;10933;50.754;11.508;2023-10-31T06:22:54;98496.94;;;11.38;nan
21545;BME280;10933;50.754;11.508;2023-10-31T06:25:20;98517.78;;;11.33;nan
21545;BME280;10933;50.754;11.508;2023-10-31T06:27:46;98531.81;;;11.30;nan
21545;BME280;10933;50.754;11.508;2023-10-31T06:30:12;98539.19;;;11.58;nan
21545;BME280;10933;50.754;11.508;2023-10-31T06:32:38;98530.41;;;11.76;nan
21545;BME280;10933;50.754;11.508;2023-10-31T06:35:06;98536.88;;;11.81;nan
21545;BME280;10933;50.754;11.508;2023-10-31T06:37:32;98517.34;;;11.89;nan
21545;BME280;10933;50.754;11.508;2023-10-31T06:39:58;98510.28;;;11.93;nan
21545;BME280;10933;50.754;11.508;2023-10-31T06:42:24;98487.97;;;11.77;nan
21545;BME280;10933;50.754;11.508;2023-10-31T06:44:50;98499.72;;;11.62;nan
21545;BME280;10933;50.754;11.508;2023-10-31T06:47:15;98502.34;;;11.72;nan
21545;BME280;10933;50.754;11.508;2023-10-31T06:49:41;98513.47;;;11.32;nan
21545;BME280;10933;50.754;11.508;2023-10-31T06:52:07;98525.25;;;11.46;nan
21545;BME280;10933;50.754;11.508;2023-10-31T06:54:32;98532.09;;;11.67;nan
21545;BME280;10933;50.754;11.508;2023-10-31T06:57:00;98524.69;;;11.49;nan
21545;BME280;10933;50.754;11.508;2023-10-31T06:59:27;98521.56;;;11.32;nan
21545;BME280;10933;50.754;11.508;2023-10-31T07:01:54;98551.75;;;10.95;nan
21545;BME280;10933;50.754;11.508;2023-10-31T07:04:20;98567.69;;;10.86;nan
21545;BME280;10933;50.754;11.508;2023-10-31T07:06:46;98587.72;;;10.70;nan
21545;BME280;10933;50.754;11.508;2023-10-31T07:09:12;98606.31;;;10.81;nan
21545;BME280;10933;50.754;11.508;2023-10-31T07:11:37;98639.72;;;10.90;nan
21545;BME280;10933;50.754;11.508;2023-10-31T07:14:03;98639.47;;;10.82;nan
21545;BME280;10933;50.754;11.508;2023-10-31T07:16:32;98651.59;;;10.89;nan
21545;BME280;10933;50.754;11.508;2023-10-31T07:18:58;98668.88;;;10.83;nan
21545;BME280;10933;50.754;11.508;2023-10-31T07:21:24;98679.94;;;10.87;nan
21545;BME280;10933;50.754;11.508;2023-10-31T07:23:51;98672.88;;;10.91;nan
21545;BME280;10933;50.754;11.508;2023-10-31T07:26:17;98673.41;;;10.98;nan
21545;BME280;10933;50.754;11.508;2023-10-31T07:28:43;98671.50;;;11.09;nan
21545;BME280;10933;50.754;11.508;2023-10-31T07:31:08;98676.06;;;11.18;nan
21545;BME280;10933;50.754;11.508;2023-10-31T07:33:34;98677.38;;;11.26;nan
21545;BME280;10933;50.754;11.508;2023-10-31T07:36:00;98677.88;;;11.28;nan
21545;BME280;10933;50.754;11.508;2023-10-31T07:38:26;98684.28;;;11.47;nan
21545;BME280;10933;50.754;11.508;2023-10-31T07:40:52;98678.50;;;11.69;nan
21545;BME280;10933;50.754;11.508;2023-10-31T07:43:17;98669.78;;;11.77;nan
21545;BME280;10933;50.754;11.508;2023-10-31T07:45:43;98679.00;;;11.82;nan
21545;BME280;10933;50.754;11.508;2023-10-31T07:48:09;98671.97;;;11.81;nan
21545;BME280;10933;50.754;11.508;2023-10-31T07:50:34;98666.50;;;11.91;nan
21545;BME280;10933;50.754;11.508;2023-10-31T07:53:00;98660.94;;;11.72;nan
21545;BME280;10933;50.754;11.508;2023-10-31T07:55:26;98656.09;;;11.64;nan
21545;BME280;10933;50.754;11.508;2023-10-31T07:57:52;98659.06;;;12.06;nan
21545;BME280;10933;50.754;11.508;2023-10-31T08:00:18;98629.84;;;12.14;nan
21545;BME280;10933;50.754;11.508;2023-10-31T08:02:44;98618.16;;;12.18;nan
21545;BME280;10933;50.754;11.508;2023-10-31T08:05:10;98594.09;;;12.22;nan
21545;BME280;10933;50.754;11.508;2023-10-31T08:07:36;98560.09;;;12.40;nan
21545;BME280;10933;50.754;11.508;2023-10-31T08:10:03;98545.03;;;12.04;nan
21545;BME280;10933;50.754;11.508;2023-10-31T08:12:29;98542.81;;;11.77;nan
21545;BME280;10933;50.754;11.508;2023-10-31T08:14:55;98534.59;;;11.93;nan
21545;BME280;10933;50.754;11.508;2023-10-31T08:17:21;98525.50;;;12.13;nan
21545;BME280;10933;50.754;11.508;2023-10-31T08:19:47;98499.34;;;12.08;nan
21545;BME280;10933;50.754;11.508;2023-10-31T08:22:13;98459.72;;;12.22;nan
21545;BME280;10933;50.754;11.508;2023-10-31T08:24:39;98433.22;;;12.19;nan
21545;BME280;10933;50.754;11.508;2023-10-31T08:27:05;98399.94;;;12.00;nan
21545;BME280;10933;50.754;11.508;2023-10-31T08:29:31;98378.22;;;12.10;nan
21545;BME280;10933;50.754;11.508;2023-10-31T08:31:57;98353.22;;;12.18;nan
21545;BME280;10933;50.754;11.508;2023-10-31T08:34:23;98328.31;;;12.59;nan
21545;BME280;10933;50.754;11.508;2023-10-31T08:36:49;98308.03;;;13.08;nan
21545;BME280;10933;50.754;11.508;2023-10-31T08:39:15;98270.66;;;13.10;nan
21545;BME280;10933;50.754;11.508;2023-10-31T08:41:55;98247.28;;;12.67;nan
21545;BME280;10933;50.754;11.508;2023-10-31T08:44:22;98248.06;;;12.68;nan
21545;BME280;10933;50.754;11.508;2023-10-31T08:46:48;98254.06;;;12.84;nan
21545;BME280;10933;50.754;11.508;2023-10-31T08:49:15;98247.72;;;13.21;nan
21545;BME280;10933;50.754;11.508;2023-10-31T08:51:42;98233.31;;;12.93;nan
21545;BME280;10933;50.754;11.508;2023-10-31T08:54:08;98249.88;;;12.59;nan
21545;BME280;10933;50.754;11.508;2023-10-31T08:56:35;98251.78;;;12.40;nan
21545;BME280;10933;50.754;11.508;2023-10-31T08:59:01;98264.66;;;12.48;nan
21545;BME280;10933;50.754;11.508;2023-10-31T09:01:27;98272.25;;;12.78;nan
21545;BME280;10933;50.754;11.508;2023-10-31T09:03:54;98270.63;;;12.63;nan
21545;BME280;10933;50.754;11.508;2023-10-31T09:06:20;98279.91;;;12.57;nan
21545;BME280;10933;50.754;11.508;2023-10-31T09:08:46;98285.00;;;12.78;nan
21545;BME280;10933;50.754;11.508;2023-10-31T09:11:12;98297.16;;;13.95;nan
21545;BME280;10933;50.754;11.508;2023-10-31T09:13:37;98303.41;;;13.54;nan
21545;BME280;10933;50.754;11.508;2023-10-31T09:16:04;98312.56;;;13.12;nan
21545;BME280;10933;50.754;11.508;2023-10-31T09:18:29;98309.81;;;12.66;nan
21545;BME280;10933;50.754;11.508;2023-10-31T09:20:55;98312.56;;;12.80;nan
21545;BME280;10933;50.754;11.508;2023-10-31T09:23:21;98319.91;;;12.93;nan
21545;BME280;10933;50.754;11.508;2023-10-31T09:25:47;98326.00;;;13.50;nan
21545;BME280;10933;50.754;11.508;2023-10-31T09:28:12;98333.16;;;12.94;nan
21545;BME280;10933;50.754;11.508;2023-10-31T09:30:38;98336.38;;;12.96;nan
21545;BME280;10933;50.754;11.508;2023-10-31T09:33:04;98340.47;;;12.94;nan
21545;BME280;10933;50.754;11.508;2023-10-31T09:35:29;98351.28;;;13.13;nan
21545;BME280;10933;50.754;11.508;2023-10-31T09:37:55;98359.78;;;13.39;nan
21545;BME280;10933;50.754;11.508;2023-10-31T09:40:22;98370.16;;;13.50;nan
21545;BME280;10933;50.754;11.508;2023-10-31T09:42:48;98375.41;;;13.28;nan
21545;BME280;10933;50.754;11.508;2023-10-31T09:45:17;98371.13;;;12.89;nan
21545;BME280;10933;50.754;11.508;2023-10-31T09:47:43;98368.00;;;12.82;nan
21545;BME280;10933;50.754;11.508;2023-10-31T09:50:10;98380.00;;;12.38;nan
21545;BME280;10933;50.754;11.508;2023-10-31T09:52:36;98376.78;;;12.36;nan
21545;BME280;10933;50.754;11.508;2023-10-31T09:55:03;98376.56;;;12.33;nan
21545;BME280;10933;50.754;11.508;2023-10-31T09:57:30;98380.88;;;12.53;nan
21545;BME280;10933;50.754;11.508;2023-10-31T09:59:56;98371.16;;;12.52;nan
21545;BME280;10933;50.754;11.508;2023-10-31T10:02:22;98376.31;;;12.29;nan
21545;BME280;10933;50.754;11.508;2023-10-31T10:04:49;98382.19;;;12.36;nan
21545;BME280;10933;50.754;11.508;2023-10-31T10:07:19;98380.00;;;12.38;nan
21545;BME280;10933;50.754;11.508;2023-10-31T10:09:46;98369.16;;;12.57;nan
21545;BME280;10933;50.754;11.508;2023-10-31T10:12:16;98384.63;;;13.27;nan
21545;BME280;10933;50.754;11.508;2023-10-31T10:14:45;98387.28;;;13.46;nan
21545;BME280;10933;50.754;11.508;2023-10-31T10:17:22;98374.09;;;13.07;nan
21545;BME280;10933;50.754;11.508;2023-10-31T10:19:58;98377.94;;;12.68;nan
21545;BME280;10933;50.754;11.508;2023-10-31T10:22:30;98387.16;;;12.67;nan
21545;BME280;10933;50.754;11.508;2023-10-31T10:24:55;98386.22;;;12.58;nan
21545;BME280;10933;50.754;11.508;2023-10-31T10:27:21;98399.16;;;12.61;nan
21545;BME280;10933;50.754;11.508;2023-10-31T10:29:47;98405.59;;;12.65;nan
21545;BME280;10933;50.754;11.508;2023-10-31T10:32:12;98381.00;;;12.43;nan
21545;BME280;10933;50.754;11.508;2023-10-31T10:34:41;98388.22;;;12.71;nan
21545;BME280;10933;50.754;11.508;2023-10-31T10:37:08;98393.50;;;13.46;nan
21545;BME280;10933;50.754;11.508;2023-10-31T10:39:35;98410.06;;;16.03;nan
21545;BME280;10933;50.754;11.508;2023-10-31T10:42:09;98378.25;;;15.72;nan
21545;BME280;10933;50.754;11.508;2023-10-31T10:44:36;98403.81;;;14.46;nan
21545;BME280;10933;50.754;11.508;2023-10-31T10:47:06;98405.41;;;14.33;nan
21545;BME280;10933;50.754;11.508;2023-10-31T10:49:37;98401.00;;;14.51;nan
21545;BME280;10933;50.754;11.508;2023-10-31T10:52:25;98410.41;;;14.67;nan
21545;BME280;10933;50.754;11.508;2023-10-31T11:00:16;98417.16;;;12.89;nan
21545;BME280;10933;50.754;11.508;2023-10-31T11:02:43;98413.72;;;12.84;nan
21545;BME280;10933;50.754;11.508;2023-10-31T11:05:10;98419.88;;;12.71;nan
21545;BME280;10933;50.754;11.508;2023-10-31T11:07:40;98426.31;;;12.75;nan
21545;BME280;10933;50.754;11.508;2023-10-31T11:10:08;98429.72;;;12.61;nan
21545;BME280;10933;50.754;11.508;2023-10-31T11:12:36;98438.72;;;12.76;nan
21545;BME280;10933;50.754;11.508;2023-10-31T11:15:04;98439.53;;;13.14;nan
21545;BME280;10933;50.754;11.508;2023-10-31T11:17:36;98442.47;;;12.99;nan
21545;BME280;10933;50.754;11.508;2023-10-31T11:20:04;98452.44;;;13.22;nan
21545;BME280;10933;50.754;11.508;2023-10-31T11:22:42;98448.44;;;13.33;nan
21545;BME280;10933;50.754;11.508;2023-10-31T11:25:14;98461.91;;;13.84;nan
21545;BME280;10933;50.754;11.508;2023-10-31T11:27:39;98457.44;;;14.35;nan
21545;BME280;10933;50.754;11.508;2023-10-31T11:30:20;98438.34;;;13.85;nan
21545;BME280;10933;50.754;11.508;2023-10-31T11:32:52;98440.06;;;13.95;nan
21545;BME280;10933;50.754;11.508;2023-10-31T11:35:19;98444.97;;;13.93;nan
21545;BME280;10933;50.754;11.508;2023-10-31T11:37:49;98443.69;;;14.18;nan
21545;BME280;10933;50.754;11.508;2023-10-31T11:40:21;98450.59;;;14.79;nan
21545;BME280;10933;50.754;11.508;2023-10-31T11:43:12;98437.38;;;14.36;nan
21545;BME280;10933;50.754;11.508;2023-10-31T11:45:43;98440.09;;;14.50;nan
21545;BME280;10933;50.754;11.508;2023-10-31T11:48:14;98444.91;;;14.39;nan
21545;BME280;10933;50.754;11.508;2023-10-31T11:50:41;98451.81;;;13.90;nan
21545;BME280;10933;50.754;11.508;2023-10-31T11:53:12;98453.97;;;13.61;nan
21545;BME280;10933;50.754;11.508;2023-10-31T11:55:46;98465.28;;;13.49;nan
21545;BME280;10933;50.754;11.508;2023-10-31T11:58:23;98474.25;;;13.44;nan
21545;BME280;10933;50.754;11.508;2023-10-31T12:00:51;98489.69;;;13.63;nan
21545;BME280;10933;50.754;11.508;2023-10-31T12:03:20;98485.47;;;13.70;nan
21545;BME280;10933;50.754;11.508;2023-10-31T12:05:57;98474.59;;;13.57;nan
21545;BME280;10933;50.754;11.508;2023-10-31T12:11:23;98472.59;;;13.48;nan
21545;BME280;10933;50.754;11.508;2023-10-31T12:14:01;98457.19;;;13.63;nan
21545;BME280;10933;50.754;11.508;2023-10-31T12:16:32;98470.63;;;13.68;nan
21545;BME280;10933;50.754;11.508;2023-10-31T12:19:04;98480.91;;;13.84;nan
21545;BME280;10933;50.754;11.508;2023-10-31T12:21:46;98474.88;;;13.74;nan
21545;BME280;10933;50.754;11.508;2023-10-31T12:24:16;98485.69;;;13.41;nan
21545;BME280;10933;50.754;11.508;2023-10-31T12:26:43;98501.38;;;13.25;nan
21545;BME280;10933;50.754;11.508;2023-10-31T12:29:20;98498.28;;;13.32;nan
21545;BME280;10933;50.754;11.508;2023-10-31T12:31:52;98502.31;;;13.16;nan
21545;BME280;10933;50.754;11.508;2023-10-31T12:34:21;98496.88;;;13.16;nan
21545;BME280;10933;50.754;11.508;2023-10-31T12:36:50;98508.25;;;12.99;nan
21545;BME280;10933;50.754;11.508;2023-10-31T12:39:21;98517.47;;;12.98;nan
21545;BME280;10933;50.754;11.508;2023-10-31T12:41:48;98500.41;;;12.98;nan
21545;BME280;10933;50.754;11.508;2023-10-31T12:44:23;98512.47;;;13.05;nan
21545;BME280;10933;50.754;11.508;2023-10-31T12:46:49;98518.25;;;12.99;nan
21545;BME280;10933;50.754;11.508;2023-10-31T12:49:19;98518.41;;;12.88;nan
21545;BME280;10933;50.754;11.508;2023-10-31T12:52:02;98519.09;;;12.75;nan
21545;BME280;10933;50.754;11.508;2023-10-31T12:54:37;98517.00;;;12.72;nan
21545;BME280;10933;50.754;11.508;2023-10-31T12:57:08;98532.13;;;12.73;nan
21545;BME280;10933;50.754;11.508;2023-10-31T12:59:37;98534.19;;;12.57;nan
21545;BME280;10933;50.754;11.508;2023-10-31T13:02:04;98535.34;;;12.51;nan
21545;BME280;10933;50.754;11.508;2023-10-31T13:04:32;98545.66;;;12.73;nan
21545;BME280;10933;50.754;11.508;2023-10-31T13:07:04;98555.91;;;12.95;nan
21545;BME280;10933;50.754;11.508;2023-10-31T13:09:32;98543.38;;;12.80;nan
21545;BME280;10933;50.754;11.508;2023-10-31T13:12:03;98565.63;;;12.77;nan
21545;BME280;10933;50.754;11.508;2023-10-31T13:14:29;98549.97;;;12.74;nan
21545;BME280;10933;50.754;11.508;2023-10-31T13:16:55;98554.50;;;12.55;nan